Terminal Aerodrome Forecast
Issued by NWS

Home | Current Version | Previous Version | Text Only | Print | Product List | Glossary On
Versions: 1 2 3 4 5 6 7 8 9 10 11 12 13 14 15 16 17 18 19 20 21 22
000
FTUS42 KFFC 290536
TAFRYY
TAF
KRYY 290536Z 2906/3006 VRB03KT 4SM BR FEW008 SCT015
     FM290900 00000KT 3SM BR BKN008
     FM291400 13004KT P6SM BKN025
     FM291700 13004KT P6SM SCT035 PROB30 2919/2922 5SM TSRA BKN025CB
     FM300200 13005KT P6SM FEW040 SCT120
      AMD NOT SKED TIL 291200=

USA.gov is the U.S. government's official web portal to all federal, state and local government web resources and services.